sensor_id;sensor_type;location;lat;lon;timestamp;P1;durP1;ratioP1;P2;durP2;ratioP2
24617;SDS011;12762;51.730;5.356;2023-02-08T00:00:51;23.60;;;8.50;;
24617;SDS011;12762;51.730;5.356;2023-02-08T00:03:18;17.33;;;9.20;;
24617;SDS011;12762;51.730;5.356;2023-02-08T00:05:45;18.63;;;9.07;;
24617;SDS011;12762;51.730;5.356;2023-02-08T00:08:12;20.20;;;10.00;;
24617;SDS011;12762;51.730;5.356;2023-02-08T00:10:39;15.33;;;8.70;;
24617;SDS011;12762;51.730;5.356;2023-02-08T00:13:06;25.33;;;9.70;;
24617;SDS011;12762;51.730;5.356;2023-02-08T00:15:33;18.87;;;9.80;;
24617;SDS011;12762;51.730;5.356;2023-02-08T00:18:05;16.43;;;8.43;;
24617;SDS011;12762;51.730;5.356;2023-02-08T00:20:37;16.40;;;8.90;;
24617;SDS011;12762;51.730;5.356;2023-02-08T00:23:05;16.50;;;7.77;;
24617;SDS011;12762;51.730;5.356;2023-02-08T00:25:32;16.80;;;8.60;;
24617;SDS011;12762;51.730;5.356;2023-02-08T00:28:00;20.93;;;9.30;;
24617;SDS011;12762;51.730;5.356;2023-02-08T00:30:29;16.37;;;9.17;;
24617;SDS011;12762;51.730;5.356;2023-02-08T00:32:57;16.83;;;8.77;;
24617;SDS011;12762;51.730;5.356;2023-02-08T00:35:27;17.57;;;8.80;;
24617;SDS011;12762;51.730;5.356;2023-02-08T00:37:55;22.57;;;8.70;;
24617;SDS011;12762;51.730;5.356;2023-02-08T00:40:22;16.93;;;8.43;;
24617;SDS011;12762;51.730;5.356;2023-02-08T00:42:49;16.73;;;8.50;;
24617;SDS011;12762;51.730;5.356;2023-02-08T00:45:16;18.10;;;8.93;;
24617;SDS011;12762;51.730;5.356;2023-02-08T00:47:43;17.87;;;8.33;;
24617;SDS011;12762;51.730;5.356;2023-02-08T00:50:10;17.10;;;8.17;;
24617;SDS011;12762;51.730;5.356;2023-02-08T00:52:37;20.47;;;8.27;;
24617;SDS011;12762;51.730;5.356;2023-02-08T00:55:04;17.53;;;9.03;;
24617;SDS011;12762;51.730;5.356;2023-02-08T00:57:32;14.03;;;8.13;;
24617;SDS011;12762;51.730;5.356;2023-02-08T01:00:05;16.40;;;8.20;;
24617;SDS011;12762;51.730;5.356;2023-02-08T01:02:34;18.57;;;8.90;;
24617;SDS011;12762;51.730;5.356;2023-02-08T01:05:02;16.63;;;7.90;;
24617;SDS011;12762;51.730;5.356;2023-02-08T01:07:29;16.33;;;8.20;;
24617;SDS011;12762;51.730;5.356;2023-02-08T01:09:56;18.20;;;8.40;;
24617;SDS011;12762;51.730;5.356;2023-02-08T01:12:23;17.47;;;8.87;;
24617;SDS011;12762;51.730;5.356;2023-02-08T01:14:50;17.07;;;8.93;;
24617;SDS011;12762;51.730;5.356;2023-02-08T01:17:17;18.30;;;8.73;;
24617;SDS011;12762;51.730;5.356;2023-02-08T01:19:43;15.53;;;8.03;;
24617;SDS011;12762;51.730;5.356;2023-02-08T01:22:10;16.77;;;9.00;;
24617;SDS011;12762;51.730;5.356;2023-02-08T01:24:37;18.93;;;9.00;;
24617;SDS011;12762;51.730;5.356;2023-02-08T01:27:04;16.20;;;8.30;;
24617;SDS011;12762;51.730;5.356;2023-02-08T01:29:30;17.83;;;8.90;;
24617;SDS011;12762;51.730;5.356;2023-02-08T01:31:57;17.30;;;8.43;;
24617;SDS011;12762;51.730;5.356;2023-02-08T01:34:24;13.93;;;7.67;;
24617;SDS011;12762;51.730;5.356;2023-02-08T01:36:51;19.60;;;8.90;;
24617;SDS011;12762;51.730;5.356;2023-02-08T01:39:18;22.63;;;9.00;;
24617;SDS011;12762;51.730;5.356;2023-02-08T01:41:45;15.77;;;8.10;;
24617;SDS011;12762;51.730;5.356;2023-02-08T01:46:43;21.30;;;8.40;;
24617;SDS011;12762;51.730;5.356;2023-02-08T01:49:14;17.37;;;8.40;;
24617;SDS011;12762;51.730;5.356;2023-02-08T01:51:53;18.23;;;9.03;;
24617;SDS011;12762;51.730;5.356;2023-02-08T01:54:37;17.13;;;8.00;;
24617;SDS011;12762;51.730;5.356;2023-02-08T01:57:09;18.83;;;8.53;;
24617;SDS011;12762;51.730;5.356;2023-02-08T01:59:38;16.10;;;8.60;;
24617;SDS011;12762;51.730;5.356;2023-02-08T02:02:18;22.47;;;8.83;;
24617;SDS011;12762;51.730;5.356;2023-02-08T02:04:47;18.83;;;8.70;;
24617;SDS011;12762;51.730;5.356;2023-02-08T02:07:16;17.13;;;7.87;;
24617;SDS011;12762;51.730;5.356;2023-02-08T02:12:39;17.03;;;8.37;;
24617;SDS011;12762;51.730;5.356;2023-02-08T02:15:08;18.37;;;8.33;;
24617;SDS011;12762;51.730;5.356;2023-02-08T02:17:35;20.80;;;9.30;;
24617;SDS011;12762;51.730;5.356;2023-02-08T02:26:38;15.33;;;8.67;;
24617;SDS011;12762;51.730;5.356;2023-02-08T02:31:33;21.73;;;9.13;;
24617;SDS011;12762;51.730;5.356;2023-02-08T02:34:22;18.80;;;9.50;;
24617;SDS011;12762;51.730;5.356;2023-02-08T02:37:02;16.67;;;8.40;;
24617;SDS011;12762;51.730;5.356;2023-02-08T02:40:23;19.07;;;9.00;;
24617;SDS011;12762;51.730;5.356;2023-02-08T02:46:04;17.93;;;8.97;;
24617;SDS011;12762;51.730;5.356;2023-02-08T02:48:46;16.17;;;8.17;;
24617;SDS011;12762;51.730;5.356;2023-02-08T02:51:21;17.63;;;8.40;;
24617;SDS011;12762;51.730;5.356;2023-02-08T02:54:32;18.00;;;8.07;;
24617;SDS011;12762;51.730;5.356;2023-02-08T02:57:05;16.80;;;8.13;;
24617;SDS011;12762;51.730;5.356;2023-02-08T02:59:36;17.20;;;9.00;;
24617;SDS011;12762;51.730;5.356;2023-02-08T03:02:04;20.13;;;9.17;;
24617;SDS011;12762;51.730;5.356;2023-02-08T03:12:36;15.60;;;7.67;;
24617;SDS011;12762;51.730;5.356;2023-02-08T03:21:26;17.33;;;8.23;;
24617;SDS011;12762;51.730;5.356;2023-02-08T03:24:18;17.17;;;8.03;;
24617;SDS011;12762;51.730;5.356;2023-02-08T03:27:05;19.20;;;8.67;;
24617;SDS011;12762;51.730;5.356;2023-02-08T03:29:40;17.73;;;8.40;;
24617;SDS011;12762;51.730;5.356;2023-02-08T03:32:16;16.00;;;8.07;;
24617;SDS011;12762;51.730;5.356;2023-02-08T03:37:21;16.83;;;8.67;;
24617;SDS011;12762;51.730;5.356;2023-02-08T03:39:54;14.73;;;7.30;;
24617;SDS011;12762;51.730;5.356;2023-02-08T03:42:27;19.80;;;8.47;;
24617;SDS011;12762;51.730;5.356;2023-02-08T03:45:01;18.57;;;8.57;;
24617;SDS011;12762;51.730;5.356;2023-02-08T03:47:34;22.50;;;9.27;;
24617;SDS011;12762;51.730;5.356;2023-02-08T03:50:06;17.93;;;8.53;;
24617;SDS011;12762;51.730;5.356;2023-02-08T03:52:35;17.80;;;8.40;;
24617;SDS011;12762;51.730;5.356;2023-02-08T03:55:05;17.37;;;8.00;;
24617;SDS011;12762;51.730;5.356;2023-02-08T04:00:13;14.07;;;7.87;;
24617;SDS011;12762;51.730;5.356;2023-02-08T04:02:45;18.70;;;7.83;;
24617;SDS011;12762;51.730;5.356;2023-02-08T04:05:28;13.77;;;7.10;;
24617;SDS011;12762;51.730;5.356;2023-02-08T04:07:54;15.67;;;7.77;;
24617;SDS011;12762;51.730;5.356;2023-02-08T04:10:21;14.83;;;8.13;;
24617;SDS011;12762;51.730;5.356;2023-02-08T04:12:48;15.33;;;8.00;;
24617;SDS011;12762;51.730;5.356;2023-02-08T04:15:16;18.07;;;8.57;;
24617;SDS011;12762;51.730;5.356;2023-02-08T04:17:43;21.57;;;8.43;;
24617;SDS011;12762;51.730;5.356;2023-02-08T04:20:10;15.57;;;7.87;;
24617;SDS011;12762;51.730;5.356;2023-02-08T04:22:37;17.63;;;8.43;;
24617;SDS011;12762;51.730;5.356;2023-02-08T04:25:04;16.27;;;8.03;;
24617;SDS011;12762;51.730;5.356;2023-02-08T04:27:31;20.67;;;8.80;;
24617;SDS011;12762;51.730;5.356;2023-02-08T04:29:58;15.93;;;8.70;;
24617;SDS011;12762;51.730;5.356;2023-02-08T04:32:25;17.67;;;8.57;;
24617;SDS011;12762;51.730;5.356;2023-02-08T04:34:52;17.33;;;8.67;;
24617;SDS011;12762;51.730;5.356;2023-02-08T04:37:21;18.70;;;8.23;;
24617;SDS011;12762;51.730;5.356;2023-02-08T04:39:48;18.93;;;8.03;;
24617;SDS011;12762;51.730;5.356;2023-02-08T04:42:15;16.13;;;7.73;;
24617;SDS011;12762;51.730;5.356;2023-02-08T04:44:45;17.50;;;8.50;;
24617;SDS011;12762;51.730;5.356;2023-02-08T04:47:12;18.97;;;8.30;;
24617;SDS011;12762;51.730;5.356;2023-02-08T04:49:41;16.33;;;8.43;;
24617;SDS011;12762;51.730;5.356;2023-02-08T04:52:08;18.30;;;8.47;;
24617;SDS011;12762;51.730;5.356;2023-02-08T04:54:35;18.67;;;8.07;;
24617;SDS011;12762;51.730;5.356;2023-02-08T04:57:06;19.20;;;8.70;;
24617;SDS011;12762;51.730;5.356;2023-02-08T04:59:37;19.67;;;9.07;;
24617;SDS011;12762;51.730;5.356;2023-02-08T05:02:04;16.37;;;7.60;;
24617;SDS011;12762;51.730;5.356;2023-02-08T05:04:31;13.80;;;7.57;;
24617;SDS011;12762;51.730;5.356;2023-02-08T05:06:58;17.90;;;8.80;;
24617;SDS011;12762;51.730;5.356;2023-02-08T05:09:25;17.17;;;7.50;;
24617;SDS011;12762;51.730;5.356;2023-02-08T05:11:52;23.17;;;8.20;;
24617;SDS011;12762;51.730;5.356;2023-02-08T05:14:19;14.73;;;7.60;;
24617;SDS011;12762;51.730;5.356;2023-02-08T05:16:45;18.27;;;8.87;;
24617;SDS011;12762;51.730;5.356;2023-02-08T05:19:12;18.13;;;8.43;;
24617;SDS011;12762;51.730;5.356;2023-02-08T05:21:39;16.33;;;8.17;;
24617;SDS011;12762;51.730;5.356;2023-02-08T05:24:06;20.03;;;7.67;;
24617;SDS011;12762;51.730;5.356;2023-02-08T05:26:38;16.53;;;8.20;;
24617;SDS011;12762;51.730;5.356;2023-02-08T05:29:06;18.77;;;8.33;;
24617;SDS011;12762;51.730;5.356;2023-02-08T05:31:32;17.67;;;8.43;;
24617;SDS011;12762;51.730;5.356;2023-02-08T05:34:00;16.73;;;8.43;;
24617;SDS011;12762;51.730;5.356;2023-02-08T05:36:26;19.97;;;8.90;;
24617;SDS011;12762;51.730;5.356;2023-02-08T05:38:53;18.60;;;8.23;;
24617;SDS011;12762;51.730;5.356;2023-02-08T05:41:20;20.23;;;9.03;;
24617;SDS011;12762;51.730;5.356;2023-02-08T05:43:47;18.10;;;8.53;;
24617;SDS011;12762;51.730;5.356;2023-02-08T05:46:14;19.10;;;8.97;;
24617;SDS011;12762;51.730;5.356;2023-02-08T05:48:40;18.93;;;9.00;;
24617;SDS011;12762;51.730;5.356;2023-02-08T05:51:07;19.60;;;8.67;;
24617;SDS011;12762;51.730;5.356;2023-02-08T05:53:34;23.53;;;9.20;;
24617;SDS011;12762;51.730;5.356;2023-02-08T05:56:03;18.67;;;8.77;;
24617;SDS011;12762;51.730;5.356;2023-02-08T05:58:30;16.50;;;8.63;;
24617;SDS011;12762;51.730;5.356;2023-02-08T06:00:58;18.67;;;8.87;;
24617;SDS011;12762;51.730;5.356;2023-02-08T06:03:25;16.67;;;8.40;;
24617;SDS011;12762;51.730;5.356;2023-02-08T06:05:52;16.43;;;8.30;;
24617;SDS011;12762;51.730;5.356;2023-02-08T06:08:19;15.87;;;8.33;;
24617;SDS011;12762;51.730;5.356;2023-02-08T06:10:47;17.90;;;8.50;;
24617;SDS011;12762;51.730;5.356;2023-02-08T06:13:14;18.30;;;8.97;;
24617;SDS011;12762;51.730;5.356;2023-02-08T06:15:41;16.50;;;8.43;;
24617;SDS011;12762;51.730;5.356;2023-02-08T06:18:08;17.80;;;8.80;;
24617;SDS011;12762;51.730;5.356;2023-02-08T06:20:34;15.77;;;8.20;;
24617;SDS011;12762;51.730;5.356;2023-02-08T06:23:02;18.50;;;8.03;;
24617;SDS011;12762;51.730;5.356;2023-02-08T06:25:29;21.67;;;8.97;;
24617;SDS011;12762;51.730;5.356;2023-02-08T06:27:56;19.07;;;8.20;;
24617;SDS011;12762;51.730;5.356;2023-02-08T06:30:23;19.73;;;8.27;;
24617;SDS011;12762;51.730;5.356;2023-02-08T06:32:50;17.83;;;8.13;;
24617;SDS011;12762;51.730;5.356;2023-02-08T06:35:20;16.37;;;8.53;;
24617;SDS011;12762;51.730;5.356;2023-02-08T06:37:47;17.80;;;8.07;;
24617;SDS011;12762;51.730;5.356;2023-02-08T06:40:14;14.90;;;8.00;;
24617;SDS011;12762;51.730;5.356;2023-02-08T06:42:45;20.77;;;8.37;;
24617;SDS011;12762;51.730;5.356;2023-02-08T06:45:13;19.37;;;9.07;;
24617;SDS011;12762;51.730;5.356;2023-02-08T06:47:40;15.53;;;8.40;;
24617;SDS011;12762;51.730;5.356;2023-02-08T06:50:10;17.00;;;7.80;;
24617;SDS011;12762;51.730;5.356;2023-02-08T06:52:37;19.77;;;9.07;;
24617;SDS011;12762;51.730;5.356;2023-02-08T06:55:04;17.33;;;8.27;;
24617;SDS011;12762;51.730;5.356;2023-02-08T06:57:31;17.23;;;8.07;;
24617;SDS011;12762;51.730;5.356;2023-02-08T06:59:58;17.10;;;8.33;;
24617;SDS011;12762;51.730;5.356;2023-02-08T07:02:25;15.90;;;8.00;;
24617;SDS011;12762;51.730;5.356;2023-02-08T07:04:52;17.33;;;8.50;;
24617;SDS011;12762;51.730;5.356;2023-02-08T07:07:19;18.20;;;8.33;;
24617;SDS011;12762;51.730;5.356;2023-02-08T07:09:46;19.90;;;9.00;;
24617;SDS011;12762;51.730;5.356;2023-02-08T07:12:13;21.40;;;8.90;;
24617;SDS011;12762;51.730;5.356;2023-02-08T07:14:40;19.13;;;8.73;;
24617;SDS011;12762;51.730;5.356;2023-02-08T07:17:09;21.40;;;8.20;;
24617;SDS011;12762;51.730;5.356;2023-02-08T07:19:36;18.40;;;9.10;;
24617;SDS011;12762;51.730;5.356;2023-02-08T07:22:03;17.20;;;9.43;;
24617;SDS011;12762;51.730;5.356;2023-02-08T07:24:36;24.43;;;9.30;;
24617;SDS011;12762;51.730;5.356;2023-02-08T07:27:05;19.43;;;9.87;;
24617;SDS011;12762;51.730;5.356;2023-02-08T07:29:33;17.27;;;8.67;;
24617;SDS011;12762;51.730;5.356;2023-02-08T07:32:01;24.03;;;9.00;;
24617;SDS011;12762;51.730;5.356;2023-02-08T07:34:30;17.77;;;9.17;;
24617;SDS011;12762;51.730;5.356;2023-02-08T07:36:59;18.77;;;8.50;;
24617;SDS011;12762;51.730;5.356;2023-02-08T07:39:26;18.47;;;8.43;;
24617;SDS011;12762;51.730;5.356;2023-02-08T07:41:53;18.43;;;8.73;;
24617;SDS011;12762;51.730;5.356;2023-02-08T07:44:19;22.10;;;8.17;;
24617;SDS011;12762;51.730;5.356;2023-02-08T07:46:46;19.37;;;8.93;;
24617;SDS011;12762;51.730;5.356;2023-02-08T07:49:13;15.30;;;8.57;;
24617;SDS011;12762;51.730;5.356;2023-02-08T07:51:43;20.03;;;8.80;;
24617;SDS011;12762;51.730;5.356;2023-02-08T07:54:10;18.40;;;8.63;;
24617;SDS011;12762;51.730;5.356;2023-02-08T07:56:36;17.87;;;9.03;;
24617;SDS011;12762;51.730;5.356;2023-02-08T07:59:03;19.03;;;8.83;;
24617;SDS011;12762;51.730;5.356;2023-02-08T08:01:30;19.53;;;9.77;;
24617;SDS011;12762;51.730;5.356;2023-02-08T08:03:57;18.07;;;9.20;;
24617;SDS011;12762;51.730;5.356;2023-02-08T08:06:24;19.27;;;8.83;;
24617;SDS011;12762;51.730;5.356;2023-02-08T08:08:55;22.40;;;10.13;;
24617;SDS011;12762;51.730;5.356;2023-02-08T08:11:22;21.63;;;10.03;;
24617;SDS011;12762;51.730;5.356;2023-02-08T08:13:49;21.33;;;9.43;;
24617;SDS011;12762;51.730;5.356;2023-02-08T08:16:17;22.33;;;10.87;;
24617;SDS011;12762;51.730;5.356;2023-02-08T08:18:44;19.67;;;9.50;;
24617;SDS011;12762;51.730;5.356;2023-02-08T08:21:12;19.10;;;9.73;;
24617;SDS011;12762;51.730;5.356;2023-02-08T08:23:38;20.43;;;9.57;;
24617;SDS011;12762;51.730;5.356;2023-02-08T08:26:10;20.57;;;9.30;;
24617;SDS011;12762;51.730;5.356;2023-02-08T08:28:39;19.77;;;9.77;;
24617;SDS011;12762;51.730;5.356;2023-02-08T08:31:10;19.07;;;10.17;;
24617;SDS011;12762;51.730;5.356;2023-02-08T08:33:44;21.13;;;9.57;;
24617;SDS011;12762;51.730;5.356;2023-02-08T08:36:12;23.07;;;10.07;;
24617;SDS011;12762;51.730;5.356;2023-02-08T08:38:39;23.13;;;10.77;;
24617;SDS011;12762;51.730;5.356;2023-02-08T08:41:13;23.77;;;11.20;;
24617;SDS011;12762;51.730;5.356;2023-02-08T08:43:43;24.60;;;11.93;;
24617;SDS011;12762;51.730;5.356;2023-02-08T08:46:10;21.57;;;12.13;;
24617;SDS011;12762;51.730;5.356;2023-02-08T08:48:39;22.63;;;12.50;;
24617;SDS011;12762;51.730;5.356;2023-02-08T08:51:06;21.50;;;11.83;;
24617;SDS011;12762;51.730;5.356;2023-02-08T08:53:33;22.10;;;12.27;;
24617;SDS011;12762;51.730;5.356;2023-02-08T08:56:02;21.47;;;10.90;;
24617;SDS011;12762;51.730;5.356;2023-02-08T08:58:30;18.77;;;10.87;;
24617;SDS011;12762;51.730;5.356;2023-02-08T09:00:57;19.37;;;10.33;;
24617;SDS011;12762;51.730;5.356;2023-02-08T09:03:25;19.73;;;10.90;;
24617;SDS011;12762;51.730;5.356;2023-02-08T09:05:53;21.43;;;10.27;;
24617;SDS011;12762;51.730;5.356;2023-02-08T09:08:22;20.67;;;10.17;;
24617;SDS011;12762;51.730;5.356;2023-02-08T09:10:52;19.70;;;10.50;;
24617;SDS011;12762;51.730;5.356;2023-02-08T09:13:19;20.70;;;10.53;;
24617;SDS011;12762;51.730;5.356;2023-02-08T09:15:50;15.83;;;9.37;;
24617;SDS011;12762;51.730;5.356;2023-02-08T09:18:17;18.60;;;10.17;;
24617;SDS011;12762;51.730;5.356;2023-02-08T09:20:43;16.80;;;9.67;;
24617;SDS011;12762;51.730;5.356;2023-02-08T09:23:13;19.13;;;9.60;;
24617;SDS011;12762;51.730;5.356;2023-02-08T09:25:40;18.30;;;10.30;;
24617;SDS011;12762;51.730;5.356;2023-02-08T09:28:07;17.70;;;10.00;;
24617;SDS011;12762;51.730;5.356;2023-02-08T09:30:34;18.80;;;9.57;;
24617;SDS011;12762;51.730;5.356;2023-02-08T09:33:01;16.47;;;9.33;;
24617;SDS011;12762;51.730;5.356;2023-02-08T09:35:28;21.57;;;10.03;;
24617;SDS011;12762;51.730;5.356;2023-02-08T09:37:55;19.77;;;10.50;;
24617;SDS011;12762;51.730;5.356;2023-02-08T09:40:24;17.20;;;10.00;;
24617;SDS011;12762;51.730;5.356;2023-02-08T09:48:46;17.07;;;9.27;;
24617;SDS011;12762;51.730;5.356;2023-02-08T09:51:26;17.30;;;10.07;;
24617;SDS011;12762;51.730;5.356;2023-02-08T09:54:09;16.20;;;8.90;;
24617;SDS011;12762;51.730;5.356;2023-02-08T09:56:55;16.37;;;9.40;;
24617;SDS011;12762;51.730;5.356;2023-02-08T09:59:27;18.93;;;9.30;;
24617;SDS011;12762;51.730;5.356;2023-02-08T10:02:03;17.43;;;9.87;;
24617;SDS011;12762;51.730;5.356;2023-02-08T10:04:56;17.67;;;9.67;;
24617;SDS011;12762;51.730;5.356;2023-02-08T10:07:24;18.57;;;9.30;;
24617;SDS011;12762;51.730;5.356;2023-02-08T10:09:55;14.10;;;8.57;;
24617;SDS011;12762;51.730;5.356;2023-02-08T10:12:43;17.30;;;9.10;;
24617;SDS011;12762;51.730;5.356;2023-02-08T10:15:35;16.13;;;8.50;;
24617;SDS011;12762;51.730;5.356;2023-02-08T10:19:13;16.60;;;8.53;;
24617;SDS011;12762;51.730;5.356;2023-02-08T10:24:14;17.23;;;8.90;;
24617;SDS011;12762;51.730;5.356;2023-02-08T10:26:48;16.73;;;8.93;;
24617;SDS011;12762;51.730;5.356;2023-02-08T10:29:45;16.17;;;9.40;;
24617;SDS011;12762;51.730;5.356;2023-02-08T10:32:41;16.87;;;8.83;;
24617;SDS011;12762;51.730;5.356;2023-02-08T10:37:54;16.00;;;8.17;;
24617;SDS011;12762;51.730;5.356;2023-02-08T10:40:29;14.17;;;8.77;;
24617;SDS011;12762;51.730;5.356;2023-02-08T10:43:05;15.80;;;8.30;;
24617;SDS011;12762;51.730;5.356;2023-02-08T10:45:37;14.40;;;8.07;;
24617;SDS011;12762;51.730;5.356;2023-02-08T10:48:33;14.47;;;8.07;;
24617;SDS011;12762;51.730;5.356;2023-02-08T10:51:19;12.77;;;7.80;;
24617;SDS011;12762;51.730;5.356;2023-02-08T10:53:47;12.53;;;7.50;;
24617;SDS011;12762;51.730;5.356;2023-02-08T10:56:29;16.43;;;8.47;;
24617;SDS011;12762;51.730;5.356;2023-02-08T10:59:27;14.17;;;7.70;;
24617;SDS011;12762;51.730;5.356;2023-02-08T11:02:07;13.53;;;7.43;;
24617;SDS011;12762;51.730;5.356;2023-02-08T11:07:28;12.97;;;7.07;;
24617;SDS011;12762;51.730;5.356;2023-02-08T11:13:03;14.33;;;7.60;;
24617;SDS011;12762;51.730;5.356;2023-02-08T11:16:00;16.17;;;7.47;;
24617;SDS011;12762;51.730;5.356;2023-02-08T11:18:30;13.37;;;7.70;;
24617;SDS011;12762;51.730;5.356;2023-02-08T11:21:04;16.37;;;7.90;;
24617;SDS011;12762;51.730;5.356;2023-02-08T11:23:39;12.87;;;7.40;;
24617;SDS011;12762;51.730;5.356;2023-02-08T11:26:15;16.90;;;7.83;;
24617;SDS011;12762;51.730;5.356;2023-02-08T11:34:36;13.00;;;7.87;;
24617;SDS011;12762;51.730;5.356;2023-02-08T11:37:21;12.90;;;7.27;;
24617;SDS011;12762;51.730;5.356;2023-02-08T11:39:54;12.97;;;7.67;;
24617;SDS011;12762;51.730;5.356;2023-02-08T11:42:24;15.37;;;7.90;;
24617;SDS011;12762;51.730;5.356;2023-02-08T11:44:56;15.47;;;7.20;;
24617;SDS011;12762;51.730;5.356;2023-02-08T11:47:25;13.40;;;7.77;;
24617;SDS011;12762;51.730;5.356;2023-02-08T11:50:01;12.40;;;7.43;;
24617;SDS011;12762;51.730;5.356;2023-02-08T11:58:25;13.97;;;8.20;;
24617;SDS011;12762;51.730;5.356;2023-02-08T12:00:41;14.23;;;7.27;;
24617;SDS011;12762;51.730;5.356;2023-02-08T12:03:42;11.27;;;6.93;;
24617;SDS011;12762;51.730;5.356;2023-02-08T12:09:02;12.77;;;7.03;;
24617;SDS011;12762;51.730;5.356;2023-02-08T12:11:42;11.37;;;6.40;;
24617;SDS011;12762;51.730;5.356;2023-02-08T12:17:22;10.53;;;6.93;;
24617;SDS011;12762;51.730;5.356;2023-02-08T12:22:31;10.90;;;6.17;;
24617;SDS011;12762;51.730;5.356;2023-02-08T12:25:19;11.27;;;6.47;;
24617;SDS011;12762;51.730;5.356;2023-02-08T12:30:32;11.87;;;6.40;;
24617;SDS011;12762;51.730;5.356;2023-02-08T12:41:52;10.77;;;6.27;;
24617;SDS011;12762;51.730;5.356;2023-02-08T12:50:16;11.57;;;6.30;;
24617;SDS011;12762;51.730;5.356;2023-02-08T12:56:04;10.93;;;6.17;;
24617;SDS011;12762;51.730;5.356;2023-02-08T12:58:49;12.27;;;6.40;;
24617;SDS011;12762;51.730;5.356;2023-02-08T13:01:45;13.73;;;6.20;;
24617;SDS011;12762;51.730;5.356;2023-02-08T13:04:21;10.90;;;5.93;;
24617;SDS011;12762;51.730;5.356;2023-02-08T13:06:54;11.87;;;6.10;;
24617;SDS011;12762;51.730;5.356;2023-02-08T13:12:25;13.43;;;6.17;;
24617;SDS011;12762;51.730;5.356;2023-02-08T13:15:06;11.47;;;6.10;;
24617;SDS011;12762;51.730;5.356;2023-02-08T13:18:00;10.70;;;5.87;;
24617;SDS011;12762;51.730;5.356;2023-02-08T13:20:48;10.60;;;6.07;;
24617;SDS011;12762;51.730;5.356;2023-02-08T13:25:51;11.90;;;5.40;;
24617;SDS011;12762;51.730;5.356;2023-02-08T13:28:52;8.07;;;5.57;;
24617;SDS011;12762;51.730;5.356;2023-02-08T13:31:22;9.73;;;5.63;;
24617;SDS011;12762;51.730;5.356;2023-02-08T13:33:54;9.27;;;4.97;;
24617;SDS011;12762;51.730;5.356;2023-02-08T13:39:04;9.57;;;5.10;;
24617;SDS011;12762;51.730;5.356;2023-02-08T13:41:33;12.17;;;5.03;;
24617;SDS011;12762;51.730;5.356;2023-02-08T13:44:06;9.23;;;4.77;;
24617;SDS011;12762;51.730;5.356;2023-02-08T13:46:44;9.73;;;4.30;;
24617;SDS011;12762;51.730;5.356;2023-02-08T13:58:02;10.03;;;4.60;;
24617;SDS011;12762;51.730;5.356;2023-02-08T14:03:23;8.80;;;4.87;;
24617;SDS011;12762;51.730;5.356;2023-02-08T14:13:53;8.80;;;4.50;;
24617;SDS011;12762;51.730;5.356;2023-02-08T14:19:04;9.37;;;4.97;;
24617;SDS011;12762;51.730;5.356;2023-02-08T14:22:03;9.80;;;4.63;;
24617;SDS011;12762;51.730;5.356;2023-02-08T14:24:31;9.93;;;4.67;;
24617;SDS011;12762;51.730;5.356;2023-02-08T14:27:26;6.97;;;3.90;;
24617;SDS011;12762;51.730;5.356;2023-02-08T14:30:05;7.93;;;3.83;;
24617;SDS011;12762;51.730;5.356;2023-02-08T14:32:43;7.10;;;3.73;;
24617;SDS011;12762;51.730;5.356;2023-02-08T14:37:40;5.87;;;3.87;;
24617;SDS011;12762;51.730;5.356;2023-02-08T14:45:32;10.80;;;3.57;;
24617;SDS011;12762;51.730;5.356;2023-02-08T14:48:13;6.77;;;3.70;;
24617;SDS011;12762;51.730;5.356;2023-02-08T14:53:51;6.57;;;3.80;;
24617;SDS011;12762;51.730;5.356;2023-02-08T14:56:27;8.47;;;4.17;;
24617;SDS011;12762;51.730;5.356;2023-02-08T14:59:06;6.10;;;3.73;;
24617;SDS011;12762;51.730;5.356;2023-02-08T15:02:00;5.60;;;3.33;;
24617;SDS011;12762;51.730;5.356;2023-02-08T15:04:27;7.07;;;3.60;;
24617;SDS011;12762;51.730;5.356;2023-02-08T15:09:48;6.37;;;3.70;;
24617;SDS011;12762;51.730;5.356;2023-02-08T15:14:56;5.97;;;4.33;;
24617;SDS011;12762;51.730;5.356;2023-02-08T15:20:05;6.73;;;3.77;;
24617;SDS011;12762;51.730;5.356;2023-02-08T15:22:35;8.27;;;3.90;;
24617;SDS011;12762;51.730;5.356;2023-02-08T15:25:12;7.87;;;3.80;;
24617;SDS011;12762;51.730;5.356;2023-02-08T15:27:46;7.27;;;3.20;;
24617;SDS011;12762;51.730;5.356;2023-02-08T15:30:51;6.57;;;3.10;;
24617;SDS011;12762;51.730;5.356;2023-02-08T15:33:12;6.90;;;3.50;;
24617;SDS011;12762;51.730;5.356;2023-02-08T15:35:41;5.70;;;3.07;;
24617;SDS011;12762;51.730;5.356;2023-02-08T15:38:19;6.60;;;3.43;;
24617;SDS011;12762;51.730;5.356;2023-02-08T15:41:07;6.17;;;3.20;;
24617;SDS011;12762;51.730;5.356;2023-02-08T15:43:37;7.63;;;3.67;;
24617;SDS011;12762;51.730;5.356;2023-02-08T15:46:15;5.90;;;3.30;;
24617;SDS011;12762;51.730;5.356;2023-02-08T15:48:54;7.17;;;3.70;;
24617;SDS011;12762;51.730;5.356;2023-02-08T15:51:22;6.40;;;3.50;;
24617;SDS011;12762;51.730;5.356;2023-02-08T15:53:51;7.50;;;3.77;;
24617;SDS011;12762;51.730;5.356;2023-02-08T15:56:21;6.93;;;3.63;;
24617;SDS011;12762;51.730;5.356;2023-02-08T15:59:04;6.23;;;3.37;;
24617;SDS011;12762;51.730;5.356;2023-02-08T16:01:39;7.27;;;4.20;;
24617;SDS011;12762;51.730;5.356;2023-02-08T16:04:06;9.97;;;3.83;;
24617;SDS011;12762;51.730;5.356;2023-02-08T16:06:38;6.17;;;3.80;;
24617;SDS011;12762;51.730;5.356;2023-02-08T16:09:24;6.40;;;3.70;;
24617;SDS011;12762;51.730;5.356;2023-02-08T16:11:55;7.90;;;4.03;;
24617;SDS011;12762;51.730;5.356;2023-02-08T16:14:24;7.97;;;4.37;;
24617;SDS011;12762;51.730;5.356;2023-02-08T16:16:56;10.40;;;4.37;;
24617;SDS011;12762;51.730;5.356;2023-02-08T16:19:31;8.10;;;4.50;;
24617;SDS011;12762;51.730;5.356;2023-02-08T16:22:41;6.47;;;4.07;;
24617;SDS011;12762;51.730;5.356;2023-02-08T16:24:53;5.83;;;3.70;;
24617;SDS011;12762;51.730;5.356;2023-02-08T16:27:40;9.70;;;4.10;;
24617;SDS011;12762;51.730;5.356;2023-02-08T16:30:16;5.67;;;3.37;;
24617;SDS011;12762;51.730;5.356;2023-02-08T16:32:45;5.57;;;3.50;;
24617;SDS011;12762;51.730;5.356;2023-02-08T16:35:33;7.57;;;3.43;;
24617;SDS011;12762;51.730;5.356;2023-02-08T16:38:02;7.83;;;3.40;;
24617;SDS011;12762;51.730;5.356;2023-02-08T16:48:39;5.83;;;3.40;;
24617;SDS011;12762;51.730;5.356;2023-02-08T16:51:15;6.33;;;3.27;;
24617;SDS011;12762;51.730;5.356;2023-02-08T16:53:47;6.87;;;3.43;;
24617;SDS011;12762;51.730;5.356;2023-02-08T16:56:15;6.83;;;3.50;;
24617;SDS011;12762;51.730;5.356;2023-02-08T16:58:42;8.57;;;3.83;;
24617;SDS011;12762;51.730;5.356;2023-02-08T17:01:12;6.83;;;3.53;;
24617;SDS011;12762;51.730;5.356;2023-02-08T17:03:40;7.50;;;3.83;;
24617;SDS011;12762;51.730;5.356;2023-02-08T17:06:11;8.23;;;3.80;;
24617;SDS011;12762;51.730;5.356;2023-02-08T17:08:46;8.33;;;3.47;;
24617;SDS011;12762;51.730;5.356;2023-02-08T17:11:13;7.67;;;4.30;;
24617;SDS011;12762;51.730;5.356;2023-02-08T17:13:40;8.73;;;3.53;;
24617;SDS011;12762;51.730;5.356;2023-02-08T17:16:08;6.80;;;3.70;;
24617;SDS011;12762;51.730;5.356;2023-02-08T17:18:46;7.93;;;4.00;;
24617;SDS011;12762;51.730;5.356;2023-02-08T17:21:14;7.53;;;3.67;;
24617;SDS011;12762;51.730;5.356;2023-02-08T17:23:41;8.43;;;3.87;;
24617;SDS011;12762;51.730;5.356;2023-02-08T17:26:16;6.33;;;3.30;;
24617;SDS011;12762;51.730;5.356;2023-02-08T17:28:47;7.23;;;4.10;;
24617;SDS011;12762;51.730;5.356;2023-02-08T17:31:18;6.30;;;3.77;;
24617;SDS011;12762;51.730;5.356;2023-02-08T17:33:45;8.03;;;3.67;;
24617;SDS011;12762;51.730;5.356;2023-02-08T17:36:16;6.70;;;3.77;;